Главная страница
METAR-TAF:

METAR-TAF

Аэропорты :

Люксембург-Финдел

Люксембург, Люксембург

широта: 49-37N, долгота: 006-13E, высота над уровнем моря: 376 м

Текущие метеонаблюдения

Эта сводка был подготовлена 19 минут назад, в 12:50 UTC
Ветер 4 Узел от восточный, изменяющийся между северо-северо-восточный и юго-юго-восточный
Температура 21°C
Влажность 46%
Давление 1019 hPa
Видимость 10 км и более
Нет облачности ниже 1500 м, и нет кучево-дождевой облачности

METAR: ELLX 161250Z 08004KT 030V150 CAVOK 21/09 Q1019 NOSIG

Время: 15:09 (13:09 UTC)

Прогноз

Эта сводка был подготовлена 2 часа и 9 минут назад, в 11:00 UTC
Прогноз действительный с 16-го 12 UTC до 17-го 18 UTC
Ветер 8 Узел от северо-восточный
Видимость 10 км и более
Нет облачности ниже 1500 м, и нет кучево-дождевой облачности

TAF: ELLX 161100Z 1612/1718 05008KT CAVOK

Метеонаблюдения и прогнозы для более 4000 аэропортов (сводки METAR и TAF).

Имеющиеся станции представлены на карте желтыми и красными точками.

Чтобы увидеть название станции, наведите на нее мышь.

Затем щелкните, чтобы увидеть метеонаблюдения и метеопрогнозы.

Управление картой: чтобы увеличить масштаб, щелкните зеленые кнопки с черным крестиком; чтобы уменьшить масштаб, щелкните зеленую кнопку с тире; для просмотра соседних карт щелкайте зеленые стрелки.


METAR-TAF: